sensor_id;sensor_type;location;lat;lon;timestamp;temperature;humidity
64817;DHT22;69411;45.656;11.740;2024-02-26T00:00:17;9.30;74.60
64817;DHT22;69411;45.656;11.740;2024-02-26T00:02:43;9.30;74.80
64817;DHT22;69411;45.656;11.740;2024-02-26T00:05:09;9.30;74.90
64817;DHT22;69411;45.656;11.740;2024-02-26T00:07:35;9.20;74.80
64817;DHT22;69411;45.656;11.740;2024-02-26T00:10:01;9.20;74.90
64817;DHT22;69411;45.656;11.740;2024-02-26T00:12:27;9.20;74.90
64817;DHT22;69411;45.656;11.740;2024-02-26T00:14:53;9.20;75.10
64817;DHT22;69411;45.656;11.740;2024-02-26T00:17:19;9.20;75.00
64817;DHT22;69411;45.656;11.740;2024-02-26T00:19:45;9.10;75.00
64817;DHT22;69411;45.656;11.740;2024-02-26T00:22:11;9.10;74.90
64817;DHT22;69411;45.656;11.740;2024-02-26T00:24:37;9.10;74.90
64817;DHT22;69411;45.656;11.740;2024-02-26T00:27:05;9.00;75.00
64817;DHT22;69411;45.656;11.740;2024-02-26T00:29:31;9.00;75.00
64817;DHT22;69411;45.656;11.740;2024-02-26T00:31:58;9.00;75.00
64817;DHT22;69411;45.656;11.740;2024-02-26T00:34:24;9.00;75.20
64817;DHT22;69411;45.656;11.740;2024-02-26T00:36:50;8.90;75.30
64817;DHT22;69411;45.656;11.740;2024-02-26T00:39:16;8.90;75.20
64817;DHT22;69411;45.656;11.740;2024-02-26T00:41:42;8.90;75.30
64817;DHT22;69411;45.656;11.740;2024-02-26T00:44:08;8.90;75.20
64817;DHT22;69411;45.656;11.740;2024-02-26T00:46:34;8.90;75.30
64817;DHT22;69411;45.656;11.740;2024-02-26T00:49:00;8.90;75.50
64817;DHT22;69411;45.656;11.740;2024-02-26T00:51:27;8.90;75.40
64817;DHT22;69411;45.656;11.740;2024-02-26T00:53:53;8.90;75.30
64817;DHT22;69411;45.656;11.740;2024-02-26T00:56:19;8.90;75.40
64817;DHT22;69411;45.656;11.740;2024-02-26T00:58:45;8.90;75.30
64817;DHT22;69411;45.656;11.740;2024-02-26T01:01:11;8.80;75.30
64817;DHT22;69411;45.656;11.740;2024-02-26T01:03:37;8.80;75.10
64817;DHT22;69411;45.656;11.740;2024-02-26T01:06:03;8.80;75.10
64817;DHT22;69411;45.656;11.740;2024-02-26T01:08:29;8.80;75.20
64817;DHT22;69411;45.656;11.740;2024-02-26T01:10:55;8.80;75.20
64817;DHT22;69411;45.656;11.740;2024-02-26T01:13:21;8.80;75.10
64817;DHT22;69411;45.656;11.740;2024-02-26T01:15:48;8.80;75.00
64817;DHT22;69411;45.656;11.740;2024-02-26T01:18:14;8.80;75.10
64817;DHT22;69411;45.656;11.740;2024-02-26T01:20:40;8.80;75.10
64817;DHT22;69411;45.656;11.740;2024-02-26T01:23:06;8.80;75.10
64817;DHT22;69411;45.656;11.740;2024-02-26T01:25:32;8.80;75.00
64817;DHT22;69411;45.656;11.740;2024-02-26T01:27:58;8.80;75.10
64817;DHT22;69411;45.656;11.740;2024-02-26T01:30:23;8.80;75.20
64817;DHT22;69411;45.656;11.740;2024-02-26T01:32:49;8.80;75.10
64817;DHT22;69411;45.656;11.740;2024-02-26T01:35:15;8.80;75.20
64817;DHT22;69411;45.656;11.740;2024-02-26T01:37:42;8.70;75.40
64817;DHT22;69411;45.656;11.740;2024-02-26T01:40:08;8.80;75.50
64817;DHT22;69411;45.656;11.740;2024-02-26T01:42:38;8.80;75.60
64817;DHT22;69411;45.656;11.740;2024-02-26T01:45:05;8.90;75.40
64817;DHT22;69411;45.656;11.740;2024-02-26T01:47:32;8.90;75.30
64817;DHT22;69411;45.656;11.740;2024-02-26T01:49:59;8.90;75.30
64817;DHT22;69411;45.656;11.740;2024-02-26T01:52:25;8.90;75.20
64817;DHT22;69411;45.656;11.740;2024-02-26T01:54:51;8.90;75.30
64817;DHT22;69411;45.656;11.740;2024-02-26T01:57:17;9.00;75.20
64817;DHT22;69411;45.656;11.740;2024-02-26T01:59:43;9.00;75.20
64817;DHT22;69411;45.656;11.740;2024-02-26T02:02:10;9.10;75.30
64817;DHT22;69411;45.656;11.740;2024-02-26T02:04:38;9.10;75.20
64817;DHT22;69411;45.656;11.740;2024-02-26T02:07:04;9.10;75.10
64817;DHT22;69411;45.656;11.740;2024-02-26T02:09:31;9.10;75.10
64817;DHT22;69411;45.656;11.740;2024-02-26T02:11:58;9.20;75.10
64817;DHT22;69411;45.656;11.740;2024-02-26T02:14:25;9.20;74.90
64817;DHT22;69411;45.656;11.740;2024-02-26T02:16:51;9.20;74.80
64817;DHT22;69411;45.656;11.740;2024-02-26T02:19:17;9.20;74.70
64817;DHT22;69411;45.656;11.740;2024-02-26T02:21:43;9.20;74.80
64817;DHT22;69411;45.656;11.740;2024-02-26T02:24:09;9.20;74.80
64817;DHT22;69411;45.656;11.740;2024-02-26T02:26:35;9.20;74.70
64817;DHT22;69411;45.656;11.740;2024-02-26T02:29:02;9.20;74.80
64817;DHT22;69411;45.656;11.740;2024-02-26T02:31:29;9.20;74.70
64817;DHT22;69411;45.656;11.740;2024-02-26T02:33:55;9.10;74.70
64817;DHT22;69411;45.656;11.740;2024-02-26T02:36:21;9.10;74.60
64817;DHT22;69411;45.656;11.740;2024-02-26T02:38:51;9.10;74.50
64817;DHT22;69411;45.656;11.740;2024-02-26T02:41:17;9.10;74.40
64817;DHT22;69411;45.656;11.740;2024-02-26T02:43:44;9.00;74.20
64817;DHT22;69411;45.656;11.740;2024-02-26T02:46:10;8.90;74.30
64817;DHT22;69411;45.656;11.740;2024-02-26T02:48:37;8.80;74.50
64817;DHT22;69411;45.656;11.740;2024-02-26T02:51:04;8.80;74.50
64817;DHT22;69411;45.656;11.740;2024-02-26T02:53:31;8.70;74.40
64817;DHT22;69411;45.656;11.740;2024-02-26T02:55:56;8.70;74.40
64817;DHT22;69411;45.656;11.740;2024-02-26T02:58:22;8.60;74.40
64817;DHT22;69411;45.656;11.740;2024-02-26T03:00:48;8.60;74.60
64817;DHT22;69411;45.656;11.740;2024-02-26T03:03:14;8.50;74.60
64817;DHT22;69411;45.656;11.740;2024-02-26T03:05:40;8.40;74.50
64817;DHT22;69411;45.656;11.740;2024-02-26T03:08:06;8.40;74.60
64817;DHT22;69411;45.656;11.740;2024-02-26T03:10:32;8.40;74.70
64817;DHT22;69411;45.656;11.740;2024-02-26T03:12:58;8.30;74.70
64817;DHT22;69411;45.656;11.740;2024-02-26T03:15:25;8.30;75.00
64817;DHT22;69411;45.656;11.740;2024-02-26T03:17:51;8.30;75.00
64817;DHT22;69411;45.656;11.740;2024-02-26T03:20:17;8.30;74.80
64817;DHT22;69411;45.656;11.740;2024-02-26T03:22:45;8.20;75.00
64817;DHT22;69411;45.656;11.740;2024-02-26T03:25:11;8.20;75.00
64817;DHT22;69411;45.656;11.740;2024-02-26T03:27:37;8.10;74.90
64817;DHT22;69411;45.656;11.740;2024-02-26T03:30:03;8.10;74.90
64817;DHT22;69411;45.656;11.740;2024-02-26T03:32:29;8.10;75.10
64817;DHT22;69411;45.656;11.740;2024-02-26T03:34:55;8.00;75.20
64817;DHT22;69411;45.656;11.740;2024-02-26T03:37:22;7.90;75.30
64817;DHT22;69411;45.656;11.740;2024-02-26T03:39:48;7.90;75.50
64817;DHT22;69411;45.656;11.740;2024-02-26T03:42:14;7.90;75.70
64817;DHT22;69411;45.656;11.740;2024-02-26T03:44:40;7.90;75.70
64817;DHT22;69411;45.656;11.740;2024-02-26T03:47:06;7.90;75.60
64817;DHT22;69411;45.656;11.740;2024-02-26T03:49:32;7.90;75.40
64817;DHT22;69411;45.656;11.740;2024-02-26T03:51:58;7.80;75.20
64817;DHT22;69411;45.656;11.740;2024-02-26T03:54:23;7.70;75.50
64817;DHT22;69411;45.656;11.740;2024-02-26T03:56:49;7.70;75.70
64817;DHT22;69411;45.656;11.740;2024-02-26T03:59:15;7.70;75.60
64817;DHT22;69411;45.656;11.740;2024-02-26T04:01:46;7.60;75.70
64817;DHT22;69411;45.656;11.740;2024-02-26T04:04:15;7.60;75.80
64817;DHT22;69411;45.656;11.740;2024-02-26T04:06:44;7.60;75.80
64817;DHT22;69411;45.656;11.740;2024-02-26T04:09:13;7.60;75.60
64817;DHT22;69411;45.656;11.740;2024-02-26T04:11:39;7.60;75.70
64817;DHT22;69411;45.656;11.740;2024-02-26T04:14:05;7.60;76.00
64817;DHT22;69411;45.656;11.740;2024-02-26T04:16:34;7.50;75.70
64817;DHT22;69411;45.656;11.740;2024-02-26T04:19:03;7.60;75.80
64817;DHT22;69411;45.656;11.740;2024-02-26T04:21:29;7.60;75.70
64817;DHT22;69411;45.656;11.740;2024-02-26T04:23:55;7.50;75.80
64817;DHT22;69411;45.656;11.740;2024-02-26T04:26:21;7.50;75.70
64817;DHT22;69411;45.656;11.740;2024-02-26T04:28:47;7.50;75.60
64817;DHT22;69411;45.656;11.740;2024-02-26T04:31:13;7.40;75.50
64817;DHT22;69411;45.656;11.740;2024-02-26T04:33:39;7.30;75.90
64817;DHT22;69411;45.656;11.740;2024-02-26T04:36:14;7.20;75.70
64817;DHT22;69411;45.656;11.740;2024-02-26T04:38:45;7.20;76.20
64817;DHT22;69411;45.656;11.740;2024-02-26T04:41:11;7.10;76.50
64817;DHT22;69411;45.656;11.740;2024-02-26T04:43:38;7.10;76.60
64817;DHT22;69411;45.656;11.740;2024-02-26T04:46:10;7.10;76.60
64817;DHT22;69411;45.656;11.740;2024-02-26T04:48:36;7.10;76.50
64817;DHT22;69411;45.656;11.740;2024-02-26T04:51:04;7.10;76.60
64817;DHT22;69411;45.656;11.740;2024-02-26T04:53:30;7.10;76.90
64817;DHT22;69411;45.656;11.740;2024-02-26T04:55:56;7.00;76.80
64817;DHT22;69411;45.656;11.740;2024-02-26T04:58:23;7.00;76.70
64817;DHT22;69411;45.656;11.740;2024-02-26T05:00:48;7.10;77.30
64817;DHT22;69411;45.656;11.740;2024-02-26T05:03:15;7.10;77.20
64817;DHT22;69411;45.656;11.740;2024-02-26T05:05:44;7.10;77.30
64817;DHT22;69411;45.656;11.740;2024-02-26T05:08:10;7.10;77.40
64817;DHT22;69411;45.656;11.740;2024-02-26T05:10:39;7.10;77.30
64817;DHT22;69411;45.656;11.740;2024-02-26T05:13:09;7.20;77.10
64817;DHT22;69411;45.656;11.740;2024-02-26T05:15:36;7.10;77.70
64817;DHT22;69411;45.656;11.740;2024-02-26T05:18:02;7.10;77.20
64817;DHT22;69411;45.656;11.740;2024-02-26T05:20:29;7.20;77.50
64817;DHT22;69411;45.656;11.740;2024-02-26T05:22:55;7.30;77.50
64817;DHT22;69411;45.656;11.740;2024-02-26T05:25:21;7.30;77.50
64817;DHT22;69411;45.656;11.740;2024-02-26T05:27:47;7.40;77.20
64817;DHT22;69411;45.656;11.740;2024-02-26T05:30:13;7.50;77.20
64817;DHT22;69411;45.656;11.740;2024-02-26T05:32:39;7.40;77.10
64817;DHT22;69411;45.656;11.740;2024-02-26T05:35:05;7.50;77.00
64817;DHT22;69411;45.656;11.740;2024-02-26T05:37:31;7.50;76.90
64817;DHT22;69411;45.656;11.740;2024-02-26T05:39:57;7.50;77.00
64817;DHT22;69411;45.656;11.740;2024-02-26T05:42:24;7.50;76.70
64817;DHT22;69411;45.656;11.740;2024-02-26T05:44:49;7.50;77.00
64817;DHT22;69411;45.656;11.740;2024-02-26T05:47:16;7.60;77.10
64817;DHT22;69411;45.656;11.740;2024-02-26T05:49:43;7.60;77.20
64817;DHT22;69411;45.656;11.740;2024-02-26T05:52:09;7.60;77.40
64817;DHT22;69411;45.656;11.740;2024-02-26T05:54:35;7.60;78.30
64817;DHT22;69411;45.656;11.740;2024-02-26T05:57:01;7.60;77.80
64817;DHT22;69411;45.656;11.740;2024-02-26T05:59:27;7.60;77.60
64817;DHT22;69411;45.656;11.740;2024-02-26T06:01:53;7.60;77.70
64817;DHT22;69411;45.656;11.740;2024-02-26T06:04:19;7.60;77.90
64817;DHT22;69411;45.656;11.740;2024-02-26T06:06:45;7.70;77.70
64817;DHT22;69411;45.656;11.740;2024-02-26T06:09:11;7.70;77.50
64817;DHT22;69411;45.656;11.740;2024-02-26T06:11:38;7.90;77.40
64817;DHT22;69411;45.656;11.740;2024-02-26T06:14:04;7.90;77.50
64817;DHT22;69411;45.656;11.740;2024-02-26T06:16:30;7.90;77.30
64817;DHT22;69411;45.656;11.740;2024-02-26T06:18:56;8.00;77.40
64817;DHT22;69411;45.656;11.740;2024-02-26T06:21:22;8.00;77.60
64817;DHT22;69411;45.656;11.740;2024-02-26T06:23:48;8.00;77.30
64817;DHT22;69411;45.656;11.740;2024-02-26T06:26:16;8.10;77.20
64817;DHT22;69411;45.656;11.740;2024-02-26T06:28:42;8.10;77.10
64817;DHT22;69411;45.656;11.740;2024-02-26T06:31:08;8.10;77.10
64817;DHT22;69411;45.656;11.740;2024-02-26T06:33:34;8.10;77.00
64817;DHT22;69411;45.656;11.740;2024-02-26T06:36:00;8.20;77.00
64817;DHT22;69411;45.656;11.740;2024-02-26T06:38:26;8.20;77.00
64817;DHT22;69411;45.656;11.740;2024-02-26T06:40:52;8.20;77.10
64817;DHT22;69411;45.656;11.740;2024-02-26T06:43:18;8.20;77.00
64817;DHT22;69411;45.656;11.740;2024-02-26T06:45:44;8.20;77.00
64817;DHT22;69411;45.656;11.740;2024-02-26T06:48:10;8.30;76.90
64817;DHT22;69411;45.656;11.740;2024-02-26T06:50:36;8.30;77.10
64817;DHT22;69411;45.656;11.740;2024-02-26T06:53:02;8.30;77.10
64817;DHT22;69411;45.656;11.740;2024-02-26T06:55:28;8.30;77.20
64817;DHT22;69411;45.656;11.740;2024-02-26T06:57:54;8.40;77.40
64817;DHT22;69411;45.656;11.740;2024-02-26T07:00:20;8.40;77.30
64817;DHT22;69411;45.656;11.740;2024-02-26T07:02:46;8.50;77.20
64817;DHT22;69411;45.656;11.740;2024-02-26T07:05:12;8.50;77.20
64817;DHT22;69411;45.656;11.740;2024-02-26T07:07:38;8.60;77.30
64817;DHT22;69411;45.656;11.740;2024-02-26T07:10:04;8.70;77.40
64817;DHT22;69411;45.656;11.740;2024-02-26T07:12:31;8.80;77.40
64817;DHT22;69411;45.656;11.740;2024-02-26T07:14:57;8.80;77.20
64817;DHT22;69411;45.656;11.740;2024-02-26T07:17:24;8.90;77.00
64817;DHT22;69411;45.656;11.740;2024-02-26T07:19:50;8.90;76.80
64817;DHT22;69411;45.656;11.740;2024-02-26T07:22:16;8.90;76.60
64817;DHT22;69411;45.656;11.740;2024-02-26T07:24:42;9.00;76.40
64817;DHT22;69411;45.656;11.740;2024-02-26T07:27:07;9.00;76.40
64817;DHT22;69411;45.656;11.740;2024-02-26T07:29:34;9.10;76.40
64817;DHT22;69411;45.656;11.740;2024-02-26T07:32:00;9.10;76.40
64817;DHT22;69411;45.656;11.740;2024-02-26T07:34:26;9.10;76.30
64817;DHT22;69411;45.656;11.740;2024-02-26T07:36:55;9.10;76.10
64817;DHT22;69411;45.656;11.740;2024-02-26T07:39:24;9.10;76.00
64817;DHT22;69411;45.656;11.740;2024-02-26T07:41:51;9.20;76.10
64817;DHT22;69411;45.656;11.740;2024-02-26T07:44:18;9.20;76.10
64817;DHT22;69411;45.656;11.740;2024-02-26T07:46:44;9.10;76.20
64817;DHT22;69411;45.656;11.740;2024-02-26T07:49:10;9.10;76.10
64817;DHT22;69411;45.656;11.740;2024-02-26T07:51:38;9.10;76.40
64817;DHT22;69411;45.656;11.740;2024-02-26T07:54:04;9.10;76.40
64817;DHT22;69411;45.656;11.740;2024-02-26T07:56:29;9.10;76.50
64817;DHT22;69411;45.656;11.740;2024-02-26T07:58:55;9.10;76.90
64817;DHT22;69411;45.656;11.740;2024-02-26T08:01:21;9.10;77.00
64817;DHT22;69411;45.656;11.740;2024-02-26T08:03:47;9.00;77.10
64817;DHT22;69411;45.656;11.740;2024-02-26T08:06:13;9.10;77.10
64817;DHT22;69411;45.656;11.740;2024-02-26T08:08:39;9.10;77.00
64817;DHT22;69411;45.656;11.740;2024-02-26T08:11:09;9.10;76.90
64817;DHT22;69411;45.656;11.740;2024-02-26T08:13:36;9.20;76.80
64817;DHT22;69411;45.656;11.740;2024-02-26T08:16:02;9.20;76.80
64817;DHT22;69411;45.656;11.740;2024-02-26T08:18:28;9.30;77.00
64817;DHT22;69411;45.656;11.740;2024-02-26T08:20:53;9.30;76.90
64817;DHT22;69411;45.656;11.740;2024-02-26T08:23:19;9.30;77.00
64817;DHT22;69411;45.656;11.740;2024-02-26T08:25:46;9.30;77.10
64817;DHT22;69411;45.656;11.740;2024-02-26T08:28:11;9.30;77.10
64817;DHT22;69411;45.656;11.740;2024-02-26T08:33:14;9.20;77.00
64817;DHT22;69411;45.656;11.740;2024-02-26T08:35:40;9.20;76.80
64817;DHT22;69411;45.656;11.740;2024-02-26T08:38:06;9.30;76.70
64817;DHT22;69411;45.656;11.740;2024-02-26T08:40:32;9.30;76.90
64817;DHT22;69411;45.656;11.740;2024-02-26T08:42:58;9.40;76.90
64817;DHT22;69411;45.656;11.740;2024-02-26T08:45:24;9.40;76.80
64817;DHT22;69411;45.656;11.740;2024-02-26T08:47:52;9.40;76.50
64817;DHT22;69411;45.656;11.740;2024-02-26T08:50:18;9.40;76.40
64817;DHT22;69411;45.656;11.740;2024-02-26T08:52:45;9.40;76.70
64817;DHT22;69411;45.656;11.740;2024-02-26T08:55:14;9.40;76.30
64817;DHT22;69411;45.656;11.740;2024-02-26T08:57:40;9.50;76.70
64817;DHT22;69411;45.656;11.740;2024-02-26T09:00:06;9.50;76.60
64817;DHT22;69411;45.656;11.740;2024-02-26T09:02:32;9.50;76.40
64817;DHT22;69411;45.656;11.740;2024-02-26T09:04:58;9.50;76.70
64817;DHT22;69411;45.656;11.740;2024-02-26T09:07:24;9.50;76.30
64817;DHT22;69411;45.656;11.740;2024-02-26T09:09:50;9.50;76.30
64817;DHT22;69411;45.656;11.740;2024-02-26T09:12:16;9.50;76.90
64817;DHT22;69411;45.656;11.740;2024-02-26T09:14:42;9.50;76.70
64817;DHT22;69411;45.656;11.740;2024-02-26T09:17:08;9.50;76.90
64817;DHT22;69411;45.656;11.740;2024-02-26T09:19:33;9.50;77.30
64817;DHT22;69411;45.656;11.740;2024-02-26T09:21:59;9.50;77.40
64817;DHT22;69411;45.656;11.740;2024-02-26T09:24:29;9.50;77.60
64817;DHT22;69411;45.656;11.740;2024-02-26T09:26:55;9.50;77.30
64817;DHT22;69411;45.656;11.740;2024-02-26T09:29:21;9.60;77.80
64817;DHT22;69411;45.656;11.740;2024-02-26T09:31:47;9.60;77.20
64817;DHT22;69411;45.656;11.740;2024-02-26T09:34:14;9.60;77.10
64817;DHT22;69411;45.656;11.740;2024-02-26T09:36:40;9.70;77.50
64817;DHT22;69411;45.656;11.740;2024-02-26T09:39:06;9.70;77.70
64817;DHT22;69411;45.656;11.740;2024-02-26T09:41:37;9.80;76.50
64817;DHT22;69411;45.656;11.740;2024-02-26T09:44:06;9.90;77.10
64817;DHT22;69411;45.656;11.740;2024-02-26T09:46:33;9.90;76.80
64817;DHT22;69411;45.656;11.740;2024-02-26T09:48:59;9.90;76.60
64817;DHT22;69411;45.656;11.740;2024-02-26T09:51:25;9.90;76.40
64817;DHT22;69411;45.656;11.740;2024-02-26T09:53:52;9.90;76.10
64817;DHT22;69411;45.656;11.740;2024-02-26T09:56:19;10.00;76.50
64817;DHT22;69411;45.656;11.740;2024-02-26T09:58:45;10.10;76.80
64817;DHT22;69411;45.656;11.740;2024-02-26T10:01:17;10.10;76.40
64817;DHT22;69411;45.656;11.740;2024-02-26T10:03:43;10.20;76.50
64817;DHT22;69411;45.656;11.740;2024-02-26T10:06:12;10.30;76.10
64817;DHT22;69411;45.656;11.740;2024-02-26T10:08:40;10.30;75.70
64817;DHT22;69411;45.656;11.740;2024-02-26T10:11:07;10.40;75.70
64817;DHT22;69411;45.656;11.740;2024-02-26T10:13:36;10.40;75.80
64817;DHT22;69411;45.656;11.740;2024-02-26T10:16:03;10.40;74.70
64817;DHT22;69411;45.656;11.740;2024-02-26T10:18:51;10.50;74.70
64817;DHT22;69411;45.656;11.740;2024-02-26T10:21:18;10.50;75.00
64817;DHT22;69411;45.656;11.740;2024-02-26T10:23:45;10.50;74.40
64817;DHT22;69411;45.656;11.740;2024-02-26T10:26:14;10.60;74.70
64817;DHT22;69411;45.656;11.740;2024-02-26T10:28:42;10.60;75.40
64817;DHT22;69411;45.656;11.740;2024-02-26T10:31:09;10.70;74.40
64817;DHT22;69411;45.656;11.740;2024-02-26T10:33:36;10.70;74.90
64817;DHT22;69411;45.656;11.740;2024-02-26T10:36:06;10.70;74.40
64817;DHT22;69411;45.656;11.740;2024-02-26T10:38:35;10.70;74.40
64817;DHT22;69411;45.656;11.740;2024-02-26T10:41:10;10.70;73.60
64817;DHT22;69411;45.656;11.740;2024-02-26T10:43:38;10.70;73.30
64817;DHT22;69411;45.656;11.740;2024-02-26T10:46:04;10.70;73.20
64817;DHT22;69411;45.656;11.740;2024-02-26T10:48:30;10.60;73.40
64817;DHT22;69411;45.656;11.740;2024-02-26T10:50:57;10.60;73.60
64817;DHT22;69411;45.656;11.740;2024-02-26T10:53:26;10.50;74.00
64817;DHT22;69411;45.656;11.740;2024-02-26T10:58:26;10.60;73.90
64817;DHT22;69411;45.656;11.740;2024-02-26T11:00:53;10.60;74.50
64817;DHT22;69411;45.656;11.740;2024-02-26T11:05:49;10.70;75.10
64817;DHT22;69411;45.656;11.740;2024-02-26T11:08:19;10.70;73.90
64817;DHT22;69411;45.656;11.740;2024-02-26T11:10:47;10.70;74.10
64817;DHT22;69411;45.656;11.740;2024-02-26T11:13:15;10.80;74.10
64817;DHT22;69411;45.656;11.740;2024-02-26T11:15:46;10.90;74.70
64817;DHT22;69411;45.656;11.740;2024-02-26T11:18:15;10.90;73.70
64817;DHT22;69411;45.656;11.740;2024-02-26T11:20:42;10.90;72.90
64817;DHT22;69411;45.656;11.740;2024-02-26T11:23:09;11.00;73.60
64817;DHT22;69411;45.656;11.740;2024-02-26T11:25:36;11.10;73.60
64817;DHT22;69411;45.656;11.740;2024-02-26T11:28:12;11.10;72.60
64817;DHT22;69411;45.656;11.740;2024-02-26T11:30:43;11.10;73.40
64817;DHT22;69411;45.656;11.740;2024-02-26T11:33:10;11.10;72.80
64817;DHT22;69411;45.656;11.740;2024-02-26T11:35:38;11.10;72.50
64817;DHT22;69411;45.656;11.740;2024-02-26T11:38:05;11.10;73.80
64817;DHT22;69411;45.656;11.740;2024-02-26T11:40:33;11.10;73.00
64817;DHT22;69411;45.656;11.740;2024-02-26T11:42:59;11.10;73.10
64817;DHT22;69411;45.656;11.740;2024-02-26T11:48:14;11.10;73.80
64817;DHT22;69411;45.656;11.740;2024-02-26T11:50:41;11.10;73.00
64817;DHT22;69411;45.656;11.740;2024-02-26T11:53:23;11.10;73.30
64817;DHT22;69411;45.656;11.740;2024-02-26T11:58:44;11.20;73.40
64817;DHT22;69411;45.656;11.740;2024-02-26T12:01:47;11.20;72.90
64817;DHT22;69411;45.656;11.740;2024-02-26T12:04:16;11.10;72.40
64817;DHT22;69411;45.656;11.740;2024-02-26T12:06:49;11.10;73.30
64817;DHT22;69411;45.656;11.740;2024-02-26T12:09:34;11.10;72.80
64817;DHT22;69411;45.656;11.740;2024-02-26T12:12:05;11.10;73.00
64817;DHT22;69411;45.656;11.740;2024-02-26T12:14:53;11.10;73.10
64817;DHT22;69411;45.656;11.740;2024-02-26T12:17:23;11.10;73.50
64817;DHT22;69411;45.656;11.740;2024-02-26T12:19:50;11.20;73.40
64817;DHT22;69411;45.656;11.740;2024-02-26T12:22:17;11.20;72.80
64817;DHT22;69411;45.656;11.740;2024-02-26T12:24:43;11.20;73.40
64817;DHT22;69411;45.656;11.740;2024-02-26T12:27:09;11.20;73.10
64817;DHT22;69411;45.656;11.740;2024-02-26T12:29:35;11.20;73.00
64817;DHT22;69411;45.656;11.740;2024-02-26T12:32:03;11.20;73.50
64817;DHT22;69411;45.656;11.740;2024-02-26T12:34:30;11.20;72.80
64817;DHT22;69411;45.656;11.740;2024-02-26T12:36:56;11.20;72.70
64817;DHT22;69411;45.656;11.740;2024-02-26T12:39:22;11.20;73.50
64817;DHT22;69411;45.656;11.740;2024-02-26T12:41:48;11.20;73.40
64817;DHT22;69411;45.656;11.740;2024-02-26T12:44:17;11.30;73.50
64817;DHT22;69411;45.656;11.740;2024-02-26T12:46:43;11.30;72.90
64817;DHT22;69411;45.656;11.740;2024-02-26T12:49:14;11.30;73.50
64817;DHT22;69411;45.656;11.740;2024-02-26T12:51:40;11.30;73.30
64817;DHT22;69411;45.656;11.740;2024-02-26T12:54:07;11.30;73.00
64817;DHT22;69411;45.656;11.740;2024-02-26T12:56:34;11.30;72.10
64817;DHT22;69411;45.656;11.740;2024-02-26T12:59:02;11.40;72.20
64817;DHT22;69411;45.656;11.740;2024-02-26T13:01:28;11.40;71.30
64817;DHT22;69411;45.656;11.740;2024-02-26T13:03:56;11.40;71.60
64817;DHT22;69411;45.656;11.740;2024-02-26T13:06:22;11.40;71.30
64817;DHT22;69411;45.656;11.740;2024-02-26T13:08:49;11.50;70.30
64817;DHT22;69411;45.656;11.740;2024-02-26T13:11:15;11.50;70.30
64817;DHT22;69411;45.656;11.740;2024-02-26T13:13:41;11.50;70.50
64817;DHT22;69411;45.656;11.740;2024-02-26T13:16:14;11.50;69.60
64817;DHT22;69411;45.656;11.740;2024-02-26T13:18:40;11.50;70.00
64817;DHT22;69411;45.656;11.740;2024-02-26T13:21:15;11.50;69.90
64817;DHT22;69411;45.656;11.740;2024-02-26T13:23:43;11.50;69.00
64817;DHT22;69411;45.656;11.740;2024-02-26T13:26:15;11.50;69.70
64817;DHT22;69411;45.656;11.740;2024-02-26T13:28:41;11.60;69.70
64817;DHT22;69411;45.656;11.740;2024-02-26T13:31:08;11.60;68.70
64817;DHT22;69411;45.656;11.740;2024-02-26T13:33:34;11.60;68.60
64817;DHT22;69411;45.656;11.740;2024-02-26T13:36:01;11.50;68.70
64817;DHT22;69411;45.656;11.740;2024-02-26T13:38:27;11.50;69.40
64817;DHT22;69411;45.656;11.740;2024-02-26T13:40:54;11.60;69.10
64817;DHT22;69411;45.656;11.740;2024-02-26T13:43:20;11.60;68.30
64817;DHT22;69411;45.656;11.740;2024-02-26T13:45:47;11.60;69.30
64817;DHT22;69411;45.656;11.740;2024-02-26T13:48:13;11.50;68.70
64817;DHT22;69411;45.656;11.740;2024-02-26T13:50:41;11.50;68.60
64817;DHT22;69411;45.656;11.740;2024-02-26T13:53:08;11.50;68.80
64817;DHT22;69411;45.656;11.740;2024-02-26T13:55:34;11.40;68.60
64817;DHT22;69411;45.656;11.740;2024-02-26T13:58:02;11.50;68.50
64817;DHT22;69411;45.656;11.740;2024-02-26T14:00:33;11.50;68.40
64817;DHT22;69411;45.656;11.740;2024-02-26T14:03:01;11.40;68.80
64817;DHT22;69411;45.656;11.740;2024-02-26T14:05:27;11.40;68.00
64817;DHT22;69411;45.656;11.740;2024-02-26T14:07:53;11.40;68.30
64817;DHT22;69411;45.656;11.740;2024-02-26T14:10:20;11.40;68.70
64817;DHT22;69411;45.656;11.740;2024-02-26T14:12:46;11.40;69.00
64817;DHT22;69411;45.656;11.740;2024-02-26T14:15:13;11.40;69.50
64817;DHT22;69411;45.656;11.740;2024-02-26T14:17:39;11.40;69.00
64817;DHT22;69411;45.656;11.740;2024-02-26T14:20:08;11.30;69.30
64817;DHT22;69411;45.656;11.740;2024-02-26T14:22:34;11.30;69.10
64817;DHT22;69411;45.656;11.740;2024-02-26T14:25:01;11.30;70.20
64817;DHT22;69411;45.656;11.740;2024-02-26T14:27:27;11.20;69.90
64817;DHT22;69411;45.656;11.740;2024-02-26T14:29:53;11.20;70.50
64817;DHT22;69411;45.656;11.740;2024-02-26T14:32:20;11.20;71.00
64817;DHT22;69411;45.656;11.740;2024-02-26T14:34:46;11.20;70.40
64817;DHT22;69411;45.656;11.740;2024-02-26T14:37:12;11.20;70.20
64817;DHT22;69411;45.656;11.740;2024-02-26T14:39:38;11.10;70.40
64817;DHT22;69411;45.656;11.740;2024-02-26T14:42:04;11.10;70.40
64817;DHT22;69411;45.656;11.740;2024-02-26T14:44:30;11.20;69.40
64817;DHT22;69411;45.656;11.740;2024-02-26T14:46:58;11.10;69.80
64817;DHT22;69411;45.656;11.740;2024-02-26T14:49:24;11.10;69.90
64817;DHT22;69411;45.656;11.740;2024-02-26T14:51:50;11.10;70.30
64817;DHT22;69411;45.656;11.740;2024-02-26T14:54:16;10.90;64.70
64817;DHT22;69411;45.656;11.740;2024-02-26T14:56:42;10.90;65.30
64817;DHT22;69411;45.656;11.740;2024-02-26T14:59:08;10.90;65.80
64817;DHT22;69411;45.656;11.740;2024-02-26T15:01:34;10.90;67.60
64817;DHT22;69411;45.656;11.740;2024-02-26T15:04:00;10.90;68.50
64817;DHT22;69411;45.656;11.740;2024-02-26T15:06:26;10.90;69.10
64817;DHT22;69411;45.656;11.740;2024-02-26T15:08:52;10.90;70.30
64817;DHT22;69411;45.656;11.740;2024-02-26T15:11:18;10.90;72.70
64817;DHT22;69411;45.656;11.740;2024-02-26T15:13:44;10.90;73.40
64817;DHT22;69411;45.656;11.740;2024-02-26T15:16:17;10.90;73.10
64817;DHT22;69411;45.656;11.740;2024-02-26T15:18:44;10.90;72.90
64817;DHT22;69411;45.656;11.740;2024-02-26T15:21:10;10.80;74.00
64817;DHT22;69411;45.656;11.740;2024-02-26T15:23:38;10.80;74.70
64817;DHT22;69411;45.656;11.740;2024-02-26T15:26:04;10.70;74.60
64817;DHT22;69411;45.656;11.740;2024-02-26T15:28:30;10.80;75.50
64817;DHT22;69411;45.656;11.740;2024-02-26T15:30:56;10.70;75.40
64817;DHT22;69411;45.656;11.740;2024-02-26T15:33:23;10.60;75.60
64817;DHT22;69411;45.656;11.740;2024-02-26T15:35:50;10.60;75.00